createdAt,value
2022-12-13T00:01:46.364Z,77.31
2022-12-13T00:04:15.645Z,77.43
2022-12-13T00:06:43.976Z,77.48
2022-12-13T00:09:13.906Z,77.98
2022-12-13T00:11:41.611Z,77.62
2022-12-13T00:14:10.407Z,77.67
2022-12-13T00:16:39.454Z,77.72
2022-12-13T00:19:08.080Z,78.20
2022-12-13T00:21:35.775Z,77.88
2022-12-13T00:24:08.578Z,77.99
2022-12-13T00:26:36.349Z,77.64
2022-12-13T00:29:07.405Z,77.71
2022-12-13T00:31:59.506Z,77.99
2022-12-13T00:34:26.149Z,77.53
2022-12-13T00:36:54.795Z,78.06
2022-12-13T00:39:23.079Z,77.31
2022-12-13T00:41:51.049Z,77.79
2022-12-13T00:44:20.414Z,77.75
2022-12-13T00:46:48.069Z,78.03
2022-12-13T00:49:15.759Z,77.88
2022-12-13T00:51:44.900Z,77.34
2022-12-13T00:54:12.826Z,77.36
2022-12-13T00:56:40.462Z,77.50
2022-12-13T00:59:09.018Z,77.31
2022-12-13T01:01:37.761Z,77.23
2022-12-13T01:04:08.358Z,77.37
2022-12-13T01:06:39.599Z,77.70
2022-12-13T01:09:15.370Z,77.81
2022-12-13T01:11:43.086Z,77.34
2022-12-13T01:14:11.163Z,77.16
2022-12-13T01:16:39.598Z,77.08
2022-12-13T01:19:07.994Z,77.09
2022-12-13T01:21:35.693Z,76.96
2022-12-13T01:24:05.498Z,77.36
2022-12-13T01:26:35.204Z,77.14
2022-12-13T01:29:05.564Z,76.73
2022-12-13T01:31:33.486Z,76.57
2022-12-13T01:34:10.593Z,77.09
2022-12-13T01:36:39.042Z,76.79
2022-12-13T01:39:07.820Z,76.87
2022-12-13T01:41:46.938Z,76.81
2022-12-13T01:44:53.165Z,76.62
2022-12-13T01:47:25.814Z,77.02
2022-12-13T01:49:57.594Z,77.58
2022-12-13T01:52:29.442Z,77.68
2022-12-13T01:55:15.470Z,78.47
2022-12-13T01:57:48.716Z,78.83
2022-12-13T02:00:17.825Z,78.47
2022-12-13T02:02:46.814Z,78.92
2022-12-13T02:05:19.827Z,79.00
2022-12-13T02:07:48.696Z,79.05
2022-12-13T02:10:16.795Z,78.99
2022-12-13T02:12:45.929Z,78.73
2022-12-13T02:15:17.118Z,78.95
2022-12-13T02:18:07.982Z,79.29
2022-12-13T02:20:51.286Z,78.75
2022-12-13T02:23:38.595Z,79.13
2022-12-13T02:26:34.599Z,79.11
2022-12-13T02:29:30.760Z,78.89
2022-12-13T02:32:05.191Z,78.98
2022-12-13T02:34:39.791Z,79.04
2022-12-13T02:37:17.917Z,79.23
2022-12-13T02:39:52.570Z,79.15
2022-12-13T02:42:25.319Z,79.25
2022-12-13T02:44:58.592Z,78.92
2022-12-13T02:47:29.831Z,78.72
2022-12-13T02:50:03.243Z,78.66
2022-12-13T02:52:32.856Z,78.67
2022-12-13T02:55:01.362Z,78.69
2022-12-13T02:57:34.727Z,78.39
2022-12-13T03:00:06.283Z,78.32
2022-12-13T03:02:47.069Z,78.26
2022-12-13T03:05:44.294Z,78.39
2022-12-13T03:08:21.754Z,78.42
2022-12-13T03:10:58.076Z,78.05
2022-12-13T03:13:39.099Z,78.68
2022-12-13T03:16:19.461Z,78.21
2022-12-13T03:18:54.236Z,78.67
2022-12-13T03:21:23.277Z,78.66
2022-12-13T03:23:50.929Z,78.71
2022-12-13T03:26:22.908Z,78.51
2022-12-13T03:28:51.545Z,78.82
2022-12-13T03:31:20.722Z,78.28
2022-12-13T03:33:48.431Z,78.56
2022-12-13T03:36:20.060Z,78.53
2022-12-13T03:38:52.253Z,78.66
2022-12-13T03:41:23.692Z,78.59
2022-12-13T03:43:51.676Z,78.50
2022-12-13T03:46:19.703Z,78.24
2022-12-13T03:48:47.770Z,78.66
2022-12-13T03:51:17.761Z,78.65
2022-12-13T03:53:45.499Z,78.68
2022-12-13T03:56:13.734Z,78.26
2022-12-13T03:58:43.147Z,78.42
2022-12-13T04:01:13.662Z,78.10
2022-12-13T04:03:42.788Z,78.15
2022-12-13T04:06:11.619Z,77.75
2022-12-13T04:08:41.465Z,77.88
2022-12-13T04:11:27.665Z,77.95
2022-12-13T04:13:56.112Z,78.10
2022-12-13T04:16:25.550Z,78.02
2022-12-13T04:18:53.565Z,77.80
2022-12-13T04:21:21.548Z,77.72
2022-12-13T04:23:50.597Z,77.43
2022-12-13T04:26:18.268Z,77.48
2022-12-13T04:28:50.906Z,77.86
2022-12-13T04:31:22.619Z,78.03
2022-12-13T04:33:50.361Z,77.88
2022-12-13T04:36:32.309Z,77.65
2022-12-13T04:39:02.624Z,77.77
2022-12-13T04:41:34.367Z,77.63
2022-12-13T04:44:03.233Z,77.78
2022-12-13T04:46:31.499Z,77.84
2022-12-13T04:48:59.172Z,77.91
2022-12-13T04:51:27.240Z,78.11
2022-12-13T04:53:55.026Z,78.08
2022-12-13T04:56:24.495Z,78.26
2022-12-13T04:58:52.300Z,78.11
2022-12-13T05:01:20.306Z,78.40
2022-12-13T05:03:48.570Z,78.13
2022-12-13T05:06:27.041Z,78.03
2022-12-13T05:09:00.878Z,78.26
2022-12-13T05:11:35.611Z,78.07
2022-12-13T05:14:04.430Z,78.25
2022-12-13T05:16:32.131Z,78.29
2022-12-13T05:19:00.916Z,78.52
2022-12-13T05:21:29.751Z,78.09
2022-12-13T05:23:57.751Z,78.82
2022-12-13T05:26:25.383Z,78.54
2022-12-13T05:28:57.024Z,78.27
2022-12-13T05:31:25.143Z,78.33
2022-12-13T05:33:53.937Z,78.04
2022-12-13T05:36:25.225Z,78.27
2022-12-13T05:38:54.414Z,78.18
2022-12-13T05:41:25.264Z,78.04
2022-12-13T05:43:54.967Z,77.80
2022-12-13T05:46:22.615Z,77.83
2022-12-13T05:48:51.083Z,78.35
2022-12-13T05:51:18.782Z,77.95
2022-12-13T05:53:51.563Z,78.21
2022-12-13T05:56:22.378Z,78.35
2022-12-13T05:58:53.627Z,78.13
2022-12-13T06:01:24.259Z,77.95
2022-12-13T06:03:52.540Z,78.15
2022-12-13T06:06:21.149Z,77.95
2022-12-13T06:08:49.013Z,78.16
2022-12-13T06:11:21.586Z,77.95
2022-12-13T06:14:01.457Z,77.61
2022-12-13T06:16:31.200Z,77.66
2022-12-13T06:19:04.118Z,77.49
2022-12-13T06:21:43.805Z,77.51
2022-12-13T06:24:17.488Z,77.40
2022-12-13T06:26:46.164Z,77.42
2022-12-13T06:29:23.475Z,77.66
2022-12-13T06:32:02.342Z,77.58
2022-12-13T06:34:32.379Z,77.67
2022-12-13T06:37:01.235Z,77.84
2022-12-13T06:39:32.808Z,77.64
2022-12-13T06:42:02.506Z,77.83
2022-12-13T06:44:30.622Z,77.61
2022-12-13T06:47:10.694Z,77.93
2022-12-13T06:49:43.230Z,77.64
2022-12-13T06:52:12.993Z,77.59
2022-12-13T06:54:41.438Z,77.38
2022-12-13T06:57:09.333Z,77.61
2022-12-13T06:59:37.511Z,77.95
2022-12-13T07:02:24.832Z,77.53
2022-12-13T07:04:56.501Z,77.73
2022-12-13T07:07:25.565Z,77.79
2022-12-13T07:09:54.571Z,77.56
2022-12-13T07:12:22.641Z,77.44
2022-12-13T07:14:50.684Z,77.59
2022-12-13T07:17:31.870Z,77.60
2022-12-13T07:20:03.866Z,77.58
2022-12-13T07:22:35.271Z,76.78
2022-12-13T07:25:06.114Z,76.00
2022-12-13T07:27:34.356Z,76.25
2022-12-13T07:30:02.978Z,75.95
2022-12-13T07:32:32.015Z,75.86
2022-12-13T07:35:00.304Z,74.99
2022-12-13T07:37:30.410Z,74.92
2022-12-13T07:40:03.837Z,75.02
2022-12-13T07:42:31.905Z,75.74
2022-12-13T07:45:00.225Z,75.47
2022-12-13T07:47:30.535Z,75.85
2022-12-13T07:50:01.685Z,75.73
2022-12-13T07:52:29.565Z,76.12
2022-12-13T07:54:57.217Z,76.14
2022-12-13T07:57:24.873Z,76.18
2022-12-13T07:59:53.403Z,76.01
2022-12-13T08:02:21.006Z,76.06
2022-12-13T08:04:54.633Z,75.55
2022-12-13T08:07:24.352Z,75.37
2022-12-13T08:09:53.277Z,74.84
2022-12-13T08:12:22.684Z,75.12
2022-12-13T08:14:53.172Z,75.45
2022-12-13T08:17:21.540Z,75.29
2022-12-13T08:19:49.178Z,75.30
2022-12-13T08:22:23.740Z,74.66
2022-12-13T08:24:54.143Z,74.11
2022-12-13T08:27:21.908Z,74.38
2022-12-13T08:29:50.312Z,74.34
2022-12-13T08:32:18.270Z,74.20
2022-12-13T08:34:46.924Z,73.76
2022-12-13T08:37:14.623Z,72.96
2022-12-13T08:39:42.838Z,72.39
2022-12-13T08:42:18.276Z,72.33
2022-12-13T08:44:48.977Z,70.82
2022-12-13T08:47:23.006Z,69.64
2022-12-13T08:49:54.283Z,67.92
2022-12-13T08:52:23.345Z,65.60
2022-12-13T08:54:52.149Z,65.08
2022-12-13T08:57:21.468Z,64.01
2022-12-13T08:59:49.461Z,63.35
2022-12-13T09:02:17.528Z,62.28
2022-12-13T09:04:45.460Z,62.19
2022-12-13T09:07:13.864Z,61.40
2022-12-13T09:09:41.567Z,61.33
2022-12-13T09:12:10.949Z,61.13
2022-12-13T09:15:00.929Z,61.65
2022-12-13T09:17:36.742Z,61.87
2022-12-13T09:20:10.144Z,62.30
2022-12-13T09:23:01.326Z,62.31
2022-12-13T09:25:37.084Z,63.06
2022-12-13T09:28:07.904Z,62.38
2022-12-13T09:30:37.508Z,62.28
2022-12-13T09:33:28.186Z,61.72
2022-12-13T09:35:53.834Z,60.18
2022-12-13T09:38:21.606Z,60.36
2022-12-13T09:40:58.387Z,60.12
2022-12-13T09:43:32.444Z,60.66
2022-12-13T09:46:13.207Z,60.59
2022-12-13T09:49:01.806Z,61.05
2022-12-13T09:51:39.630Z,61.57
2022-12-13T09:54:19.526Z,63.46
2022-12-13T09:56:51.056Z,63.00
2022-12-13T09:59:22.492Z,63.50
2022-12-13T10:01:52.044Z,63.49
2022-12-13T10:04:20.038Z,63.57
2022-12-13T10:06:48.128Z,63.21
2022-12-13T10:09:15.967Z,62.42
2022-12-13T10:11:51.722Z,62.76
2022-12-13T10:14:26.389Z,61.18
2022-12-13T10:16:59.226Z,60.62
2022-12-13T10:19:34.365Z,60.54
2022-12-13T10:22:04.803Z,60.43
2022-12-13T10:24:50.096Z,61.36
2022-12-13T10:27:19.547Z,61.01
2022-12-13T10:30:07.810Z,61.11
2022-12-13T10:32:49.531Z,60.85
2022-12-13T10:35:24.415Z,60.83
2022-12-13T10:37:53.375Z,59.89
2022-12-13T10:40:33.291Z,59.27
2022-12-13T10:43:13.149Z,57.21
2022-12-13T10:45:41.482Z,55.62
2022-12-13T10:48:21.063Z,54.79
2022-12-13T10:50:59.984Z,53.56
2022-12-13T10:53:32.272Z,53.42
2022-12-13T10:56:02.462Z,53.37
2022-12-13T10:58:39.782Z,51.60
2022-12-13T11:01:22.722Z,51.98
2022-12-13T11:04:02.883Z,51.92
2022-12-13T11:06:43.429Z,51.93
2022-12-13T11:09:22.838Z,51.18
2022-12-13T11:11:58.073Z,51.09
2022-12-13T11:14:31.907Z,51.09
2022-12-13T11:17:08.133Z,51.74
2022-12-13T11:19:41.701Z,52.63
2022-12-13T11:22:10.942Z,53.10
2022-12-13T11:24:42.194Z,52.82
2022-12-13T11:27:35.628Z,53.21
2022-12-13T11:30:20.972Z,53.21
2022-12-13T11:33:05.097Z,52.98
2022-12-13T11:35:43.684Z,51.67
2022-12-13T11:38:26.667Z,51.06
2022-12-13T11:40:59.853Z,49.81
2022-12-13T11:43:34.791Z,48.36
2022-12-13T11:46:14.588Z,47.84
2022-12-13T11:48:47.960Z,48.79
2022-12-13T11:51:25.934Z,49.29
2022-12-13T11:54:00.370Z,49.69
2022-12-13T11:56:32.379Z,50.87
2022-12-13T11:59:19.045Z,51.98
2022-12-13T12:01:54.601Z,54.23
2022-12-13T12:04:30.327Z,54.70
2022-12-13T12:07:30.586Z,54.50
2022-12-13T12:09:58.647Z,55.32
2022-12-13T12:12:33.662Z,55.18
2022-12-13T12:15:15.706Z,55.44
2022-12-13T12:17:45.251Z,55.38
2022-12-13T12:20:23.861Z,55.43
2022-12-13T12:23:03.507Z,56.50
2022-12-13T12:25:44.813Z,56.73
2022-12-13T12:28:26.865Z,58.00
2022-12-13T12:31:03.979Z,58.25
2022-12-13T12:33:43.700Z,59.32
2022-12-13T12:36:25.495Z,59.60
2022-12-13T12:39:19.911Z,59.69
2022-12-13T12:42:00.299Z,60.70
2022-12-13T12:44:39.665Z,61.37
2022-12-13T12:50:38.260Z,62.29
2022-12-13T12:53:27.908Z,61.84
2022-12-13T12:56:10.304Z,62.60
2022-12-13T12:58:47.411Z,63.46
2022-12-13T13:01:26.589Z,62.98
2022-12-13T13:04:01.609Z,63.07
2022-12-13T13:06:34.549Z,63.26
2022-12-13T13:09:06.209Z,63.33
2022-12-13T13:11:43.146Z,63.40
2022-12-13T13:14:28.398Z,63.38
2022-12-13T13:16:56.812Z,63.24
2022-12-13T13:19:43.396Z,63.37
2022-12-13T13:22:32.246Z,63.37
2022-12-13T13:25:28.592Z,63.99
2022-12-13T13:28:07.253Z,64.07
2022-12-13T13:30:36.824Z,63.96
2022-12-13T13:33:04.601Z,63.91
2022-12-13T13:35:53.673Z,64.54
2022-12-13T13:38:55.733Z,63.91
2022-12-13T13:42:07.864Z,64.02
2022-12-13T13:45:03.488Z,65.14
2022-12-13T13:47:40.215Z,65.04
2022-12-13T13:50:41.971Z,65.43
2022-12-13T13:53:43.964Z,65.28
2022-12-13T13:56:24.140Z,65.59
2022-12-13T13:59:24.908Z,66.09
2022-12-13T14:02:11.240Z,66.02
2022-12-13T14:05:12.185Z,66.42
2022-12-13T14:08:20.739Z,66.58
2022-12-13T14:11:10.338Z,67.24
2022-12-13T14:14:22.119Z,67.78
2022-12-13T14:17:23.525Z,67.59
2022-12-13T14:20:18.355Z,67.28
2022-12-13T14:22:50.800Z,67.57
2022-12-13T14:25:29.711Z,68.22
2022-12-13T14:28:03.806Z,68.32
2022-12-13T14:30:33.732Z,68.88
2022-12-13T14:33:02.719Z,68.91
2022-12-13T14:35:32.850Z,68.52
2022-12-13T14:38:02.482Z,68.46
2022-12-13T14:40:33.099Z,68.47
2022-12-13T14:43:01.451Z,68.41
2022-12-13T14:45:31.770Z,68.21
2022-12-13T14:48:04.437Z,67.62
2022-12-13T14:50:36.375Z,68.25
2022-12-13T14:53:06.319Z,67.90
2022-12-13T14:55:37.521Z,68.08
2022-12-13T14:58:17.931Z,67.79
2022-12-13T15:00:47.043Z,68.11
2022-12-13T15:03:25.124Z,68.53
2022-12-13T15:05:55.806Z,68.74
2022-12-13T15:08:24.237Z,68.67
2022-12-13T15:10:54.733Z,68.65
2022-12-13T15:13:29.925Z,69.36
2022-12-13T15:16:01.923Z,68.94
2022-12-13T15:18:41.282Z,69.80
2022-12-13T15:21:23.573Z,70.00
2022-12-13T15:23:55.998Z,69.49
2022-12-13T15:26:34.722Z,70.26
2022-12-13T15:29:10.060Z,70.84
2022-12-13T15:31:40.470Z,70.16
2022-12-13T15:34:39.978Z,70.80
2022-12-13T15:37:29.451Z,70.69
2022-12-13T15:40:01.906Z,71.10
2022-12-13T15:42:33.180Z,70.95
2022-12-13T15:45:03.777Z,71.84
2022-12-13T15:47:31.904Z,72.03
2022-12-13T15:50:03.163Z,72.66
2022-12-13T15:52:35.442Z,72.44
2022-12-13T15:55:19.831Z,72.78
2022-12-13T15:57:51.887Z,73.01
2022-12-13T16:00:30.252Z,73.14
2022-12-13T16:03:08.661Z,73.45
2022-12-13T16:05:42.743Z,72.97
2022-12-13T16:08:25.382Z,73.26
2022-12-13T16:10:54.778Z,73.04
2022-12-13T16:13:27.341Z,72.49
2022-12-13T16:16:00.121Z,72.52
2022-12-13T16:18:44.072Z,73.03
2022-12-13T16:21:14.615Z,73.43
2022-12-13T16:23:47.935Z,73.74
2022-12-13T16:26:22.673Z,73.70
2022-12-13T16:28:50.533Z,74.32
2022-12-13T16:31:22.301Z,74.06
2022-12-13T16:33:50.400Z,74.69
2022-12-13T16:36:19.424Z,75.26
2022-12-13T16:38:47.429Z,74.37
2022-12-13T16:41:16.375Z,75.06
2022-12-13T16:43:53.542Z,74.64
2022-12-13T16:47:18.215Z,74.50
2022-12-13T16:49:19.411Z,74.18
2022-12-13T16:51:49.214Z,74.48
2022-12-13T16:54:17.970Z,74.77
2022-12-13T16:56:46.149Z,74.24
2022-12-13T16:59:15.572Z,74.58
2022-12-13T17:01:44.227Z,74.60
2022-12-13T17:04:19.214Z,74.68
2022-12-13T17:06:49.807Z,75.10
2022-12-13T17:09:17.652Z,74.49
2022-12-13T17:11:45.352Z,75.27
2022-12-13T17:14:13.029Z,74.75
2022-12-13T17:16:40.754Z,74.58
2022-12-13T17:19:08.400Z,74.54
2022-12-13T17:21:36.236Z,74.26
2022-12-13T17:24:05.754Z,74.64
2022-12-13T17:26:34.816Z,75.43
2022-12-13T17:29:02.469Z,74.75
2022-12-13T17:31:35.221Z,75.29
2022-12-13T17:34:04.000Z,74.87
2022-12-13T17:36:32.150Z,75.35
2022-12-13T17:39:00.579Z,75.35
2022-12-13T17:41:29.581Z,75.81
2022-12-13T17:44:00.045Z,75.55
2022-12-13T17:46:27.818Z,75.14
2022-12-13T17:48:56.039Z,75.70
2022-12-13T17:51:23.744Z,75.22
2022-12-13T17:53:51.740Z,75.37
2022-12-13T17:56:19.689Z,75.66
2022-12-13T17:58:48.737Z,76.10
2022-12-13T18:01:19.108Z,76.72
2022-12-13T18:03:48.777Z,76.77
2022-12-13T18:06:16.888Z,76.86
2022-12-13T18:08:47.080Z,76.86
2022-12-13T18:11:33.802Z,76.50
2022-12-13T18:14:05.373Z,77.30
2022-12-13T18:16:37.346Z,76.78
2022-12-13T18:19:07.480Z,76.69
2022-12-13T18:21:36.882Z,76.53
2022-12-13T18:24:05.813Z,76.66
2022-12-13T18:26:34.186Z,76.76
2022-12-13T18:29:02.157Z,77.29
2022-12-13T18:31:31.242Z,77.47
2022-12-13T18:33:59.667Z,77.02
2022-12-13T18:36:27.824Z,77.20
2022-12-13T18:38:56.919Z,76.65
2022-12-13T18:41:28.018Z,77.92
2022-12-13T18:43:59.561Z,77.27
2022-12-13T18:46:28.295Z,77.65
2022-12-13T18:48:57.962Z,76.98
2022-12-13T18:51:26.626Z,76.88
2022-12-13T18:53:56.417Z,76.74
2022-12-13T18:56:25.720Z,76.76
2022-12-13T18:58:54.090Z,77.13
2022-12-13T19:01:22.819Z,77.66
2022-12-13T19:03:51.124Z,76.95
2022-12-13T19:06:22.056Z,77.12
2022-12-13T19:08:51.724Z,77.75
2022-12-13T19:11:20.160Z,77.37
2022-12-13T19:13:48.273Z,77.19
2022-12-13T19:16:18.112Z,77.83
2022-12-13T19:18:46.107Z,77.37
2022-12-13T19:21:16.617Z,77.06
2022-12-13T19:23:51.314Z,77.12
2022-12-13T19:26:23.864Z,76.86
2022-12-13T19:28:52.082Z,76.73
2022-12-13T19:31:19.779Z,76.65
2022-12-13T19:33:48.043Z,77.42
2022-12-13T19:36:16.392Z,76.98
2022-12-13T19:38:45.731Z,77.56
2022-12-13T19:41:15.080Z,76.84
2022-12-13T19:43:50.678Z,77.65
2022-12-13T19:46:20.786Z,77.10
2022-12-13T19:48:48.675Z,76.70
2022-12-13T19:51:16.390Z,77.84
2022-12-13T19:53:45.749Z,77.29
2022-12-13T19:56:15.983Z,77.56
2022-12-13T19:58:43.735Z,77.22
2022-12-13T20:01:12.140Z,77.86
2022-12-13T20:03:42.109Z,77.80
2022-12-13T20:06:14.635Z,77.20
2022-12-13T20:08:42.441Z,77.36
2022-12-13T20:11:14.244Z,77.54
2022-12-13T20:13:42.480Z,77.21
2022-12-13T20:16:16.664Z,77.62
2022-12-13T20:18:44.740Z,77.68
2022-12-13T20:21:14.583Z,77.12
2022-12-13T20:23:44.901Z,77.77
2022-12-13T20:26:21.053Z,76.99
2022-12-13T20:28:49.731Z,77.23
2022-12-13T20:31:19.181Z,77.15
2022-12-13T20:33:48.056Z,77.55
2022-12-13T20:36:25.885Z,77.63
2022-12-13T20:38:56.423Z,77.35
2022-12-13T20:41:26.972Z,77.79
2022-12-13T20:43:56.976Z,78.01
2022-12-13T20:46:25.932Z,77.73
2022-12-13T20:48:55.140Z,77.55
2022-12-13T20:51:25.497Z,77.70
2022-12-13T20:53:54.064Z,77.15
2022-12-13T20:56:23.546Z,77.79
2022-12-13T20:58:52.970Z,77.64
2022-12-13T21:01:22.022Z,76.08
2022-12-13T21:03:50.438Z,76.38
2022-12-13T21:06:18.206Z,75.73
2022-12-13T21:08:52.060Z,76.21
2022-12-13T21:11:27.050Z,75.64
2022-12-13T21:14:02.455Z,75.51
2022-12-13T21:16:37.998Z,76.04
2022-12-13T21:19:06.802Z,76.74
2022-12-13T21:21:34.754Z,76.36
2022-12-13T21:24:03.232Z,76.97
2022-12-13T21:26:35.661Z,76.29
2022-12-13T21:29:07.401Z,76.64
2022-12-13T21:31:37.067Z,76.80
2022-12-13T21:34:06.832Z,76.49
2022-12-13T21:36:36.581Z,76.53
2022-12-13T21:39:06.631Z,76.11
2022-12-13T21:41:34.545Z,76.30
2022-12-13T21:44:02.184Z,76.91
2022-12-13T21:47:11.436Z,76.87
2022-12-13T21:49:20.722Z,76.33
2022-12-13T21:51:48.799Z,76.68
2022-12-13T21:54:18.371Z,77.27
2022-12-13T21:57:03.796Z,77.03
2022-12-13T21:59:31.770Z,76.39
2022-12-13T22:02:15.980Z,76.28
2022-12-13T22:04:46.258Z,77.03
2022-12-13T22:07:16.092Z,76.82
2022-12-13T22:09:45.057Z,76.59
2022-12-13T22:12:20.159Z,77.00
2022-12-13T22:14:48.156Z,77.10
2022-12-13T22:17:18.434Z,76.83
2022-12-13T22:19:48.486Z,76.91
2022-12-13T22:22:17.211Z,76.19
2022-12-13T22:24:49.876Z,76.53
2022-12-13T22:27:23.507Z,77.07
2022-12-13T22:29:52.024Z,77.26
2022-12-13T22:32:21.250Z,77.06
2022-12-13T22:34:49.473Z,77.44
2022-12-13T22:37:17.845Z,77.63
2022-12-13T22:39:45.591Z,77.09
2022-12-13T22:42:13.781Z,77.00
2022-12-13T22:44:41.430Z,75.93
2022-12-13T22:47:09.443Z,76.07
2022-12-13T22:49:39.928Z,76.27
2022-12-13T22:52:08.472Z,76.27
2022-12-13T22:54:36.165Z,75.55
2022-12-13T22:57:04.263Z,75.95
2022-12-13T22:59:32.903Z,75.63
2022-12-13T23:02:02.983Z,75.50
2022-12-13T23:04:33.237Z,75.56
2022-12-13T23:07:02.585Z,75.26
2022-12-13T23:09:31.359Z,75.45
2022-12-13T23:12:17.037Z,75.69
2022-12-13T23:14:44.821Z,75.43
2022-12-13T23:17:13.351Z,75.79
2022-12-13T23:19:51.567Z,75.66
2022-12-13T23:22:26.186Z,76.01
2022-12-13T23:24:54.243Z,75.93
2022-12-13T23:27:24.168Z,75.79
2022-12-13T23:29:51.921Z,75.86
2022-12-13T23:32:20.432Z,75.67
2022-12-13T23:34:48.100Z,75.46
2022-12-13T23:37:16.340Z,75.73
2022-12-13T23:39:45.333Z,75.69
2022-12-13T23:42:13.308Z,75.78
2022-12-13T23:44:40.973Z,75.21
2022-12-13T23:47:08.859Z,75.14
2022-12-13T23:49:36.510Z,75.33
2022-12-13T23:52:04.246Z,75.73
2022-12-13T23:54:31.896Z,75.31
2022-12-13T23:57:01.629Z,74.66
2022-12-13T23:59:29.471Z,75.52
